createdAt,value
2023-02-03T00:00:50.462Z,6.63
2023-02-03T00:03:19.412Z,6.66
2023-02-03T00:05:47.826Z,6.63
2023-02-03T00:08:15.989Z,6.51
2023-02-03T00:10:43.940Z,6.49
2023-02-03T00:13:11.997Z,6.48
2023-02-03T00:15:39.923Z,6.39
2023-02-03T00:18:07.888Z,6.38
2023-02-03T00:20:36.595Z,6.43
2023-02-03T00:23:09.303Z,6.54
2023-02-03T00:25:37.408Z,6.52
2023-02-03T00:28:05.899Z,6.41
2023-02-03T00:30:36.579Z,6.41
2023-02-03T00:33:05.230Z,6.55
2023-02-03T00:35:33.943Z,6.56
2023-02-03T00:38:02.445Z,6.67
2023-02-03T00:40:33.133Z,6.82
2023-02-03T00:43:01.152Z,6.94
2023-02-03T00:45:29.535Z,7.03
2023-02-03T00:47:57.696Z,6.83
2023-02-03T00:50:26.026Z,7.08
2023-02-03T00:52:54.172Z,7.16
2023-02-03T00:55:22.165Z,7.10
2023-02-03T00:57:50.338Z,7.02
2023-02-03T01:00:19.861Z,7.15
2023-02-03T01:02:48.429Z,7.22
2023-02-03T01:05:17.261Z,7.21
2023-02-03T01:07:48.490Z,7.26
2023-02-03T01:10:17.048Z,7.23
2023-02-03T01:12:51.468Z,7.02
2023-02-03T01:15:19.550Z,7.21
2023-02-03T01:17:47.470Z,7.10
2023-02-03T01:20:17.154Z,7.05
2023-02-03T01:22:45.241Z,6.88
2023-02-03T01:25:13.824Z,6.76
2023-02-03T01:27:42.306Z,6.77
2023-02-03T01:30:11.182Z,6.76
2023-02-03T01:32:40.163Z,6.70
2023-02-03T01:35:08.297Z,6.36
2023-02-03T01:37:36.537Z,6.52
2023-02-03T01:40:05.058Z,6.63
2023-02-03T01:42:35.540Z,6.68
2023-02-03T01:45:04.021Z,6.65
2023-02-03T01:47:36.288Z,6.68
2023-02-03T01:50:21.660Z,6.73
2023-02-03T01:52:53.613Z,6.72
2023-02-03T01:55:23.981Z,6.70
2023-02-03T01:57:54.527Z,6.67
2023-02-03T02:00:22.797Z,6.73
2023-02-03T02:02:50.955Z,6.76
2023-02-03T02:05:35.892Z,6.80
2023-02-03T02:08:05.322Z,6.82
2023-02-03T02:10:33.601Z,6.97
2023-02-03T02:13:02.913Z,7.10
2023-02-03T02:46:48.439Z,2.11
2023-02-03T02:49:21.542Z,4.36
2023-02-03T02:51:48.821Z,4.72
2023-02-03T02:54:19.691Z,4.75
2023-02-03T02:56:50.893Z,4.90
2023-02-03T02:59:17.567Z,5.14
2023-02-03T03:01:44.280Z,5.35
2023-02-03T03:04:11.826Z,5.47
2023-02-03T03:06:46.127Z,5.61
2023-02-03T03:09:24.780Z,5.59
2023-02-03T03:11:59.353Z,5.69
2023-02-03T03:14:27.603Z,5.56
2023-02-03T03:16:59.891Z,5.66
2023-02-03T03:19:30.913Z,5.71
2023-02-03T03:22:02.447Z,5.63
2023-02-03T03:24:32.200Z,5.56
2023-02-03T03:27:20.393Z,5.88
2023-02-03T03:29:48.614Z,5.90
2023-02-03T03:32:15.230Z,5.92
2023-02-03T03:34:43.233Z,5.72
2023-02-03T03:37:26.030Z,5.67
2023-02-03T03:39:57.262Z,5.59
2023-02-03T03:42:33.720Z,5.44
2023-02-03T03:45:11.468Z,5.48
2023-02-03T03:47:51.359Z,5.61
2023-02-03T03:50:24.425Z,5.65
2023-02-03T03:52:51.427Z,5.41
2023-02-03T03:55:19.068Z,5.33
2023-02-03T03:58:03.740Z,5.39
2023-02-03T04:00:32.079Z,5.54
2023-02-03T04:03:01.641Z,5.52
2023-02-03T04:05:28.800Z,5.60
2023-02-03T04:07:56.118Z,5.64
2023-02-03T04:10:30.642Z,5.57
2023-02-03T04:12:57.858Z,5.57
2023-02-03T04:15:24.624Z,5.54
2023-02-03T04:17:51.337Z,5.52
2023-02-03T04:20:18.113Z,5.55
2023-02-03T04:22:46.821Z,5.65
2023-02-03T04:25:13.409Z,5.70
2023-02-03T04:27:40.321Z,5.89
2023-02-03T04:30:08.811Z,5.92
2023-02-03T04:32:36.525Z,5.98
2023-02-03T04:35:04.705Z,5.93
2023-02-03T04:37:33.693Z,5.81
2023-02-03T04:40:00.818Z,5.79
2023-02-03T04:42:27.823Z,5.84
2023-02-03T04:44:54.960Z,5.85
2023-02-03T04:47:24.602Z,5.90
2023-02-03T04:49:51.576Z,5.98
2023-02-03T04:52:18.220Z,5.98
2023-02-03T04:54:45.656Z,5.91
2023-02-03T04:57:12.927Z,5.81
2023-02-03T04:59:40.278Z,5.89
2023-02-03T05:02:08.234Z,6.03
2023-02-03T05:04:35.081Z,6.03
2023-02-03T05:07:02.161Z,6.01
2023-02-03T05:09:28.864Z,5.88
2023-02-03T05:11:57.491Z,5.93
2023-02-03T05:14:24.154Z,5.95
2023-02-03T05:16:52.085Z,5.99
2023-02-03T05:19:19.382Z,5.92
2023-02-03T05:21:46.179Z,5.90
2023-02-03T05:24:13.785Z,5.71
2023-02-03T05:26:40.464Z,5.64
2023-02-03T05:29:07.768Z,5.63
2023-02-03T05:31:35.021Z,5.71
2023-02-03T05:34:01.942Z,5.73
2023-02-03T05:36:30.927Z,5.83
2023-02-03T05:38:58.295Z,6.08
2023-02-03T05:41:45.101Z,6.09
2023-02-03T05:44:12.081Z,6.17
2023-02-03T05:46:39.364Z,6.25
2023-02-03T05:49:07.462Z,6.16
2023-02-03T05:51:39.617Z,6.07
2023-02-03T05:54:09.426Z,6.11
2023-02-03T05:56:36.272Z,6.14
2023-02-03T05:59:03.920Z,6.18
2023-02-03T06:01:31.466Z,6.20
2023-02-03T06:03:58.331Z,6.30
2023-02-03T06:06:32.416Z,6.14
2023-02-03T06:09:05.542Z,5.93
2023-02-03T06:11:32.819Z,6.16
2023-02-03T06:14:00.157Z,6.40
2023-02-03T06:16:30.559Z,6.35
2023-02-03T06:19:00.129Z,6.27
2023-02-03T06:21:26.970Z,6.29
2023-02-03T06:23:55.242Z,6.30
2023-02-03T06:26:23.945Z,6.42
2023-02-03T06:28:50.976Z,6.48
2023-02-03T06:31:18.824Z,6.43
2023-02-03T06:33:48.454Z,6.43
2023-02-03T06:36:16.569Z,6.47
2023-02-03T06:38:43.905Z,6.32
2023-02-03T06:41:12.345Z,6.41
2023-02-03T06:43:39.545Z,6.54
2023-02-03T06:46:06.969Z,6.69
2023-02-03T06:48:34.363Z,6.72
2023-02-03T06:51:00.996Z,6.84
2023-02-03T06:53:27.945Z,6.99
2023-02-03T06:55:54.659Z,7.01
2023-02-03T06:58:21.849Z,6.78
2023-02-03T07:00:48.736Z,6.93
2023-02-03T07:03:15.675Z,6.97
2023-02-03T07:05:43.825Z,6.97
2023-02-03T07:08:10.493Z,7.20
2023-02-03T07:10:39.599Z,7.18
2023-02-03T07:13:07.661Z,7.14
2023-02-03T07:15:36.476Z,7.05
2023-02-03T07:18:03.584Z,7.23
2023-02-03T07:20:32.291Z,6.96
2023-02-03T07:22:59.084Z,6.97
2023-02-03T07:25:30.001Z,7.04
2023-02-03T07:27:57.520Z,7.15
2023-02-03T07:30:24.272Z,7.20
2023-02-03T07:32:53.345Z,7.18
2023-02-03T07:35:20.196Z,7.16
2023-02-03T07:37:47.837Z,7.33
2023-02-03T07:40:15.238Z,7.45
2023-02-03T07:42:45.748Z,7.37
2023-02-03T07:45:13.527Z,7.48
2023-02-03T07:47:42.511Z,7.55
2023-02-03T07:50:10.378Z,7.46
2023-02-03T07:52:38.175Z,7.51
2023-02-03T07:55:06.206Z,7.46
2023-02-03T07:57:36.689Z,7.25
2023-02-03T08:00:04.275Z,7.19
2023-02-03T08:02:42.554Z,7.20
2023-02-03T08:05:10.204Z,7.30
2023-02-03T08:07:37.068Z,7.41
2023-02-03T08:10:05.523Z,7.41
2023-02-03T08:12:32.997Z,7.52
2023-02-03T08:15:01.413Z,7.33
2023-02-03T08:17:29.030Z,7.41
2023-02-03T08:19:55.655Z,7.34
2023-02-03T08:22:22.509Z,7.47
2023-02-03T08:24:50.041Z,7.41
2023-02-03T08:27:23.758Z,7.49
2023-02-03T08:29:50.608Z,7.70
2023-02-03T08:32:21.276Z,7.81
2023-02-03T08:34:48.846Z,7.70
2023-02-03T08:37:16.766Z,7.89
2023-02-03T08:39:44.433Z,8.16
2023-02-03T08:42:11.423Z,8.49
2023-02-03T08:44:38.879Z,8.41
2023-02-03T08:47:06.107Z,8.37
2023-02-03T08:49:35.315Z,8.34
2023-02-03T08:52:01.987Z,8.42
2023-02-03T08:54:29.643Z,8.41
2023-02-03T08:56:56.556Z,8.30
2023-02-03T08:59:23.932Z,8.52
2023-02-03T09:01:51.681Z,8.62
2023-02-03T09:04:19.157Z,8.42
2023-02-03T09:06:47.564Z,8.33
2023-02-03T09:09:14.720Z,8.46
2023-02-03T09:11:41.909Z,8.55
2023-02-03T09:14:10.857Z,8.70
2023-02-03T09:16:40.967Z,8.72
2023-02-03T09:19:07.886Z,8.44
2023-02-03T09:21:43.792Z,8.65
2023-02-03T09:24:15.630Z,8.55
2023-02-03T09:26:42.558Z,8.58
2023-02-03T09:29:10.882Z,8.60
2023-02-03T09:31:39.813Z,8.68
2023-02-03T09:34:08.334Z,8.65
2023-02-03T09:36:37.061Z,8.43
2023-02-03T09:39:04.216Z,8.29
2023-02-03T09:42:10.036Z,8.39
2023-02-03T12:43:50.063Z,5.14
2023-02-03T12:46:30.769Z,6.30
2023-02-03T12:49:10.049Z,6.36
2023-02-03T12:52:05.161Z,6.29
2023-02-03T12:54:57.681Z,6.26
2023-02-03T12:58:03.048Z,6.27
2023-02-03T13:00:38.457Z,6.50
2023-02-03T13:03:19.988Z,6.73
2023-02-03T13:05:48.165Z,7.00
2023-02-03T13:08:28.413Z,7.18
2023-02-03T13:11:16.340Z,7.37
2023-02-03T13:13:47.691Z,7.31
2023-02-03T13:16:14.464Z,7.43
2023-02-03T13:18:47.193Z,7.44
2023-02-03T13:21:13.751Z,7.62
2023-02-03T13:23:50.887Z,7.78
2023-02-03T13:26:33.013Z,7.74
2023-02-03T13:29:18.685Z,7.62
2023-02-03T13:31:48.361Z,7.57
2023-02-03T13:34:18.374Z,7.67
2023-02-03T13:37:13.063Z,7.64
2023-02-03T13:39:47.898Z,7.55
2023-02-03T13:42:17.365Z,7.55
2023-02-03T13:44:44.729Z,7.53
2023-02-03T13:47:21.095Z,7.44
2023-02-03T13:49:51.636Z,7.47
2023-02-03T13:52:45.339Z,7.44
2023-02-03T13:55:35.617Z,7.37
2023-02-03T13:58:03.591Z,7.53
2023-02-03T14:00:42.909Z,7.40
2023-02-03T14:03:17.042Z,7.45
2023-02-03T14:05:51.608Z,7.40
2023-02-03T14:08:38.658Z,7.47
2023-02-03T14:11:35.670Z,7.62
2023-02-03T14:14:08.617Z,7.54
2023-02-03T14:16:36.091Z,7.53
2023-02-03T14:19:03.515Z,7.30
2023-02-03T14:21:48.156Z,7.27
2023-02-03T14:24:14.705Z,7.01
2023-02-03T14:26:46.169Z,6.54
2023-02-03T14:29:36.813Z,6.70
2023-02-03T14:32:10.685Z,6.80
2023-02-03T14:34:46.243Z,6.60
2023-02-03T14:37:21.757Z,6.58
2023-02-03T14:40:22.821Z,6.61
2023-02-03T14:43:10.025Z,6.60
2023-02-03T14:46:00.093Z,6.72
2023-02-03T14:49:01.075Z,6.91
2023-02-03T14:51:30.644Z,6.91
2023-02-03T14:54:16.147Z,6.67
2023-02-03T14:57:19.029Z,6.35
2023-02-03T14:59:50.370Z,6.70
2023-02-03T15:02:25.937Z,6.96
2023-02-03T15:05:12.737Z,6.91
2023-02-03T15:07:48.643Z,6.78
2023-02-03T15:10:26.801Z,6.67
2023-02-03T15:12:55.274Z,6.86
2023-02-03T15:15:26.120Z,6.97
2023-02-03T15:17:54.533Z,6.88
2023-02-03T15:20:38.129Z,6.80
2023-02-03T15:23:23.893Z,6.81
2023-02-03T15:26:11.124Z,6.69
2023-02-03T15:28:38.068Z,6.39
2023-02-03T15:31:08.711Z,6.48
2023-02-03T15:33:35.859Z,7.00
2023-02-03T15:36:06.712Z,6.90
2023-02-03T15:38:39.605Z,6.85
2023-02-03T15:41:07.544Z,6.69
2023-02-03T15:43:38.890Z,6.76
2023-02-03T15:46:12.156Z,6.92
2023-02-03T15:48:40.681Z,7.14
2023-02-03T15:51:08.659Z,7.03
2023-02-03T15:53:47.794Z,6.78
2023-02-03T15:56:19.385Z,7.05
2023-02-03T15:58:47.087Z,6.74
2023-02-03T16:01:17.607Z,6.57
2023-02-03T16:03:52.241Z,6.80
2023-02-03T16:06:27.110Z,6.57
2023-02-03T16:08:54.706Z,6.54
2023-02-03T16:11:25.710Z,6.55
2023-02-03T16:13:55.172Z,6.57
2023-02-03T16:16:41.515Z,6.49
2023-02-03T16:19:13.749Z,6.38
2023-02-03T16:21:50.211Z,6.38
2023-02-03T16:24:32.540Z,6.37
2023-02-03T16:27:19.435Z,6.25
2023-02-03T16:30:05.010Z,6.37
2023-02-03T16:32:50.507Z,6.33
2023-02-03T16:35:36.073Z,6.51
2023-02-03T16:38:25.651Z,6.40
2023-02-03T16:41:11.215Z,6.26
2023-02-03T16:43:56.734Z,6.10
2023-02-03T16:46:42.395Z,6.17
2023-02-03T16:49:27.855Z,6.38
2023-02-03T16:51:54.630Z,6.52
2023-02-03T16:54:21.882Z,6.33
2023-02-03T16:56:50.846Z,6.27
2023-02-03T16:59:17.708Z,6.35
2023-02-03T17:01:44.611Z,6.65
2023-02-03T17:04:11.834Z,6.74
2023-02-03T17:06:39.007Z,6.83
2023-02-03T17:09:06.505Z,6.58
2023-02-03T17:11:33.151Z,6.57
2023-02-03T17:13:59.888Z,6.61
2023-02-03T17:16:27.364Z,6.66
2023-02-03T17:18:54.177Z,6.76
2023-02-03T17:21:23.388Z,6.72
2023-02-03T17:23:50.203Z,6.79
2023-02-03T17:26:17.068Z,6.86
2023-02-03T17:28:43.913Z,6.71
2023-02-03T17:31:15.401Z,6.69
2023-02-03T17:33:42.610Z,6.87
2023-02-03T17:36:11.626Z,6.96
2023-02-03T17:55:11.805Z,6.93
2023-02-03T17:57:38.512Z,6.91
2023-02-03T18:00:06.247Z,6.96
2023-02-03T18:02:39.713Z,7.11
2023-02-03T18:05:07.093Z,7.12
2023-02-03T18:07:34.270Z,6.89
2023-02-03T18:10:01.474Z,7.21
2023-02-03T19:37:13.567Z,2.87
2023-02-03T19:39:42.141Z,4.21
2023-02-03T19:42:11.830Z,4.44
2023-02-03T19:44:40.122Z,4.55
2023-02-03T19:47:09.627Z,4.67
2023-02-03T19:49:38.121Z,4.82
2023-02-03T19:52:09.462Z,4.95
2023-02-03T19:54:38.560Z,4.89
2023-02-03T19:57:07.966Z,5.10
2023-02-03T19:59:36.557Z,5.04
2023-02-03T20:02:13.720Z,4.89
2023-02-03T20:04:44.420Z,5.03
2023-02-03T20:07:14.970Z,4.97
2023-02-03T20:09:43.590Z,5.10
2023-02-03T20:12:11.956Z,5.21
2023-02-03T20:14:40.777Z,5.14
2023-02-03T20:17:09.990Z,4.97
2023-02-03T20:19:38.623Z,4.99
2023-02-03T20:22:06.898Z,4.98
2023-02-03T20:24:35.145Z,5.07
2023-02-03T20:27:03.560Z,5.37
2023-02-03T20:29:31.938Z,5.49
2023-02-03T20:32:00.006Z,5.46
2023-02-03T20:34:28.283Z,5.42
2023-02-03T20:36:58.836Z,5.45
2023-02-03T20:39:27.611Z,5.40
2023-02-03T20:41:56.291Z,5.60
2023-02-03T20:44:24.715Z,5.76
2023-02-03T20:46:53.454Z,5.81
2023-02-03T20:49:21.721Z,5.73
2023-02-03T20:51:50.316Z,5.94
2023-02-03T20:54:21.654Z,5.80
2023-02-03T20:56:50.228Z,5.76
2023-02-03T20:59:19.452Z,5.76
2023-02-03T21:01:47.955Z,5.97
2023-02-03T21:04:36.915Z,6.12
2023-02-03T21:07:14.830Z,6.16
2023-02-03T21:09:43.793Z,6.16
2023-02-03T21:12:15.348Z,6.12
2023-02-03T21:14:44.693Z,6.13
2023-02-03T21:17:33.299Z,5.98
2023-02-03T21:20:01.930Z,5.85
2023-02-03T21:22:34.596Z,6.05
2023-02-03T21:25:03.782Z,6.05
2023-02-03T21:27:33.581Z,5.93
2023-02-03T21:30:05.431Z,5.69
2023-02-03T21:32:40.283Z,5.68
2023-02-03T21:35:29.631Z,5.77
2023-02-03T21:38:02.109Z,5.78
2023-02-03T21:40:32.457Z,5.82
2023-02-03T21:43:01.577Z,5.63
2023-02-03T21:45:37.039Z,5.80
2023-02-03T21:48:25.189Z,5.87
2023-02-03T21:50:54.340Z,5.88
2023-02-03T21:53:27.841Z,5.97
2023-02-03T21:55:55.832Z,5.91
2023-02-03T21:58:30.314Z,5.91
2023-02-03T22:00:59.821Z,6.03
2023-02-03T22:03:49.390Z,5.92
2023-02-03T22:06:25.094Z,6.06
2023-02-03T22:08:57.335Z,6.22
2023-02-03T22:11:27.321Z,6.25
2023-02-03T22:13:56.112Z,6.15
2023-02-03T22:16:24.965Z,6.44
2023-02-03T22:18:53.086Z,6.26
2023-02-03T22:21:21.252Z,6.20
2023-02-03T22:23:49.544Z,6.28
2023-02-03T22:26:18.042Z,6.35
2023-02-03T22:28:46.250Z,6.43
2023-02-03T22:31:14.532Z,6.33
2023-02-03T22:33:43.461Z,6.25
2023-02-03T22:36:11.779Z,6.33
2023-02-03T22:38:40.805Z,6.32
2023-02-03T22:41:12.003Z,6.25
2023-02-03T22:43:40.562Z,6.03
2023-02-03T22:46:08.695Z,6.03
2023-02-03T22:48:36.897Z,5.98
2023-02-03T22:51:05.592Z,6.01
2023-02-03T22:53:34.927Z,6.43
2023-02-03T22:56:03.157Z,6.65
2023-02-03T22:58:33.785Z,6.61
2023-02-03T23:01:01.854Z,6.63
2023-02-03T23:03:32.756Z,6.52
2023-02-03T23:06:01.985Z,6.59
2023-02-03T23:08:30.137Z,6.61
2023-02-03T23:10:58.775Z,6.68
2023-02-03T23:13:28.280Z,6.44
2023-02-03T23:15:56.543Z,6.45
2023-02-03T23:18:24.907Z,6.56
2023-02-03T23:20:52.990Z,6.84
2023-02-03T23:23:20.938Z,6.57
2023-02-03T23:25:49.069Z,6.33
2023-02-03T23:28:17.148Z,6.32
2023-02-03T23:30:45.332Z,6.08
2023-02-03T23:33:13.551Z,5.88
2023-02-03T23:35:47.885Z,5.73
2023-02-03T23:38:16.918Z,5.99
2023-02-03T23:40:45.358Z,6.14
2023-02-03T23:43:14.218Z,6.16
2023-02-03T23:45:42.400Z,6.40
2023-02-03T23:48:10.556Z,6.57
2023-02-03T23:50:39.056Z,6.50
2023-02-03T23:53:07.125Z,6.50
2023-02-03T23:55:36.739Z,6.30
2023-02-03T23:58:05.374Z,6.53
